Terminal Aerodrome Forecast
Issued by NWS

Home | Current Version | Previous Version | Text Only | Print | Product List | Glossary On
Versions: 1 2 3 4 5 6 7 8 9 10 11 12 13 14 15 16 17 18 19 20
741
FTUS43 KMPX 202337
TAFRWF
TAF
KRWF 202337Z 2100/2124 12008KT 2SM BR OVC003
     FM210200 13007KT 3/4SM BR OVC002
     FM211000 11005KT 1/2SM -RA FG OVC002
     FM211800 VRB03KT 2SM BR OVC003=

USA.gov is the U.S. government's official web portal to all federal, state and local government web resources and services.